sensor_id;sensor_type;location;lat;lon;timestamp;P1;durP1;ratioP1;P2;durP2;ratioP2
61840;SDS011;47773;53.174;6.614;2024-03-02T00:02:12;7.20;;;3.83;;
61840;SDS011;47773;53.174;6.614;2024-03-02T00:04:39;6.13;;;4.00;;
61840;SDS011;47773;53.174;6.614;2024-03-02T00:07:04;9.20;;;3.85;;
61840;SDS011;47773;53.174;6.614;2024-03-02T00:09:31;9.07;;;4.13;;
61840;SDS011;47773;53.174;6.614;2024-03-02T00:11:58;6.78;;;3.95;;
61840;SDS011;47773;53.174;6.614;2024-03-02T00:14:24;5.18;;;3.55;;
61840;SDS011;47773;53.174;6.614;2024-03-02T00:16:51;7.15;;;3.75;;
61840;SDS011;47773;53.174;6.614;2024-03-02T00:19:17;8.38;;;3.58;;
61840;SDS011;47773;53.174;6.614;2024-03-02T00:21:43;6.55;;;3.45;;
61840;SDS011;47773;53.174;6.614;2024-03-02T00:24:31;7.07;;;3.85;;
61840;SDS011;47773;53.174;6.614;2024-03-02T00:26:59;7.55;;;3.80;;
61840;SDS011;47773;53.174;6.614;2024-03-02T00:29:25;8.25;;;3.95;;
61840;SDS011;47773;53.174;6.614;2024-03-02T00:31:51;8.48;;;4.13;;
61840;SDS011;47773;53.174;6.614;2024-03-02T00:34:18;7.85;;;3.80;;
61840;SDS011;47773;53.174;6.614;2024-03-02T00:36:44;7.63;;;4.40;;
61840;SDS011;47773;53.174;6.614;2024-03-02T00:39:11;9.35;;;3.92;;
61840;SDS011;47773;53.174;6.614;2024-03-02T00:41:40;9.02;;;3.70;;
61840;SDS011;47773;53.174;6.614;2024-03-02T00:44:09;5.38;;;3.55;;
61840;SDS011;47773;53.174;6.614;2024-03-02T00:46:38;7.53;;;3.65;;
61840;SDS011;47773;53.174;6.614;2024-03-02T00:49:05;7.75;;;3.92;;
61840;SDS011;47773;53.174;6.614;2024-03-02T00:51:44;9.95;;;3.95;;
61840;SDS011;47773;53.174;6.614;2024-03-02T00:54:13;8.40;;;3.97;;
61840;SDS011;47773;53.174;6.614;2024-03-02T00:56:40;6.82;;;3.75;;
61840;SDS011;47773;53.174;6.614;2024-03-02T00:59:07;7.20;;;3.90;;
61840;SDS011;47773;53.174;6.614;2024-03-02T01:01:33;6.70;;;4.15;;
61840;SDS011;47773;53.174;6.614;2024-03-02T01:03:59;8.27;;;4.30;;
61840;SDS011;47773;53.174;6.614;2024-03-02T01:06:25;6.90;;;4.45;;
61840;SDS011;47773;53.174;6.614;2024-03-02T01:08:50;6.22;;;3.95;;
61840;SDS011;47773;53.174;6.614;2024-03-02T01:11:16;7.20;;;4.22;;
61840;SDS011;47773;53.174;6.614;2024-03-02T01:13:43;6.32;;;3.60;;
61840;SDS011;47773;53.174;6.614;2024-03-02T01:16:09;9.52;;;4.20;;
61840;SDS011;47773;53.174;6.614;2024-03-02T01:18:35;8.82;;;4.05;;
61840;SDS011;47773;53.174;6.614;2024-03-02T01:21:01;6.60;;;3.92;;
61840;SDS011;47773;53.174;6.614;2024-03-02T01:23:26;8.55;;;4.32;;
61840;SDS011;47773;53.174;6.614;2024-03-02T01:25:52;6.85;;;4.25;;
61840;SDS011;47773;53.174;6.614;2024-03-02T01:28:18;7.75;;;3.80;;
61840;SDS011;47773;53.174;6.614;2024-03-02T01:30:45;8.68;;;4.43;;
61840;SDS011;47773;53.174;6.614;2024-03-02T01:33:11;8.23;;;4.07;;
61840;SDS011;47773;53.174;6.614;2024-03-02T01:35:37;6.32;;;4.05;;
61840;SDS011;47773;53.174;6.614;2024-03-02T01:38:03;7.93;;;4.15;;
61840;SDS011;47773;53.174;6.614;2024-03-02T01:40:31;7.88;;;4.18;;
61840;SDS011;47773;53.174;6.614;2024-03-02T01:42:58;10.75;;;4.38;;
61840;SDS011;47773;53.174;6.614;2024-03-02T01:45:24;8.02;;;4.88;;
61840;SDS011;47773;53.174;6.614;2024-03-02T01:47:49;8.13;;;4.03;;
61840;SDS011;47773;53.174;6.614;2024-03-02T01:50:15;6.63;;;3.90;;
61840;SDS011;47773;53.174;6.614;2024-03-02T01:52:49;7.03;;;3.95;;
61840;SDS011;47773;53.174;6.614;2024-03-02T01:55:15;7.13;;;4.25;;
61840;SDS011;47773;53.174;6.614;2024-03-02T01:57:40;7.25;;;4.10;;
61840;SDS011;47773;53.174;6.614;2024-03-02T02:00:06;8.15;;;4.15;;
61840;SDS011;47773;53.174;6.614;2024-03-02T02:02:32;6.43;;;4.03;;
61840;SDS011;47773;53.174;6.614;2024-03-02T02:04:58;7.45;;;4.38;;
61840;SDS011;47773;53.174;6.614;2024-03-02T02:07:23;8.70;;;4.32;;
61840;SDS011;47773;53.174;6.614;2024-03-02T02:09:49;13.15;;;4.65;;
61840;SDS011;47773;53.174;6.614;2024-03-02T02:12:15;9.07;;;5.15;;
61840;SDS011;47773;53.174;6.614;2024-03-02T02:14:46;8.10;;;4.40;;
61840;SDS011;47773;53.174;6.614;2024-03-02T02:17:13;7.30;;;4.13;;
61840;SDS011;47773;53.174;6.614;2024-03-02T02:19:40;7.72;;;4.35;;
61840;SDS011;47773;53.174;6.614;2024-03-02T02:22:06;10.40;;;4.43;;
61840;SDS011;47773;53.174;6.614;2024-03-02T02:24:31;7.45;;;4.05;;
61840;SDS011;47773;53.174;6.614;2024-03-02T02:26:57;7.07;;;4.40;;
61840;SDS011;47773;53.174;6.614;2024-03-02T02:29:23;8.88;;;3.95;;
61840;SDS011;47773;53.174;6.614;2024-03-02T02:31:48;7.78;;;4.20;;
61840;SDS011;47773;53.174;6.614;2024-03-02T02:34:14;8.75;;;4.40;;
61840;SDS011;47773;53.174;6.614;2024-03-02T02:36:40;6.85;;;4.00;;
61840;SDS011;47773;53.174;6.614;2024-03-02T02:39:07;7.43;;;4.30;;
61840;SDS011;47773;53.174;6.614;2024-03-02T02:41:36;7.97;;;4.20;;
61840;SDS011;47773;53.174;6.614;2024-03-02T02:44:01;8.15;;;4.22;;
61840;SDS011;47773;53.174;6.614;2024-03-02T02:46:27;8.40;;;4.03;;
61840;SDS011;47773;53.174;6.614;2024-03-02T02:48:52;8.10;;;4.55;;
61840;SDS011;47773;53.174;6.614;2024-03-02T02:51:18;7.40;;;4.13;;
61840;SDS011;47773;53.174;6.614;2024-03-02T02:53:44;6.93;;;4.03;;
61840;SDS011;47773;53.174;6.614;2024-03-02T02:56:10;9.27;;;3.83;;
61840;SDS011;47773;53.174;6.614;2024-03-02T02:58:35;4.90;;;3.30;;
61840;SDS011;47773;53.174;6.614;2024-03-02T03:01:01;6.75;;;3.47;;
61840;SDS011;47773;53.174;6.614;2024-03-02T03:03:27;5.63;;;3.33;;
61840;SDS011;47773;53.174;6.614;2024-03-02T03:05:53;8.13;;;3.53;;
61840;SDS011;47773;53.174;6.614;2024-03-02T03:08:18;5.70;;;3.17;;
61840;SDS011;47773;53.174;6.614;2024-03-02T03:10:44;6.63;;;3.50;;
61840;SDS011;47773;53.174;6.614;2024-03-02T03:13:10;5.53;;;3.05;;
61840;SDS011;47773;53.174;6.614;2024-03-02T03:15:35;9.18;;;2.90;;
61840;SDS011;47773;53.174;6.614;2024-03-02T03:18:02;5.55;;;2.80;;
61840;SDS011;47773;53.174;6.614;2024-03-02T03:20:32;4.68;;;2.75;;
61840;SDS011;47773;53.174;6.614;2024-03-02T03:22:58;4.93;;;2.72;;
61840;SDS011;47773;53.174;6.614;2024-03-02T03:25:24;4.40;;;2.42;;
61840;SDS011;47773;53.174;6.614;2024-03-02T03:27:50;4.32;;;2.70;;
61840;SDS011;47773;53.174;6.614;2024-03-02T03:30:19;4.43;;;2.63;;
61840;SDS011;47773;53.174;6.614;2024-03-02T03:32:44;4.80;;;2.55;;
61840;SDS011;47773;53.174;6.614;2024-03-02T03:35:10;5.05;;;2.55;;
61840;SDS011;47773;53.174;6.614;2024-03-02T03:37:37;4.45;;;2.45;;
61840;SDS011;47773;53.174;6.614;2024-03-02T03:40:03;4.07;;;2.40;;
61840;SDS011;47773;53.174;6.614;2024-03-02T03:42:35;5.50;;;2.50;;
61840;SDS011;47773;53.174;6.614;2024-03-02T03:45:01;5.45;;;2.50;;
61840;SDS011;47773;53.174;6.614;2024-03-02T03:47:27;4.38;;;2.88;;
61840;SDS011;47773;53.174;6.614;2024-03-02T03:49:52;6.10;;;3.10;;
61840;SDS011;47773;53.174;6.614;2024-03-02T03:52:18;4.45;;;2.65;;
61840;SDS011;47773;53.174;6.614;2024-03-02T03:54:43;6.93;;;3.53;;
61840;SDS011;47773;53.174;6.614;2024-03-02T03:57:09;5.93;;;2.88;;
61840;SDS011;47773;53.174;6.614;2024-03-02T03:59:35;5.28;;;2.58;;
61840;SDS011;47773;53.174;6.614;2024-03-02T04:02:02;5.80;;;2.33;;
61840;SDS011;47773;53.174;6.614;2024-03-02T04:04:28;6.05;;;2.50;;
61840;SDS011;47773;53.174;6.614;2024-03-02T04:06:54;7.35;;;3.00;;
61840;SDS011;47773;53.174;6.614;2024-03-02T04:09:19;8.13;;;2.70;;
61840;SDS011;47773;53.174;6.614;2024-03-02T04:11:45;4.63;;;2.58;;
61840;SDS011;47773;53.174;6.614;2024-03-02T04:14:11;4.95;;;2.45;;
61840;SDS011;47773;53.174;6.614;2024-03-02T04:16:37;5.47;;;2.65;;
61840;SDS011;47773;53.174;6.614;2024-03-02T04:19:04;4.20;;;2.40;;
61840;SDS011;47773;53.174;6.614;2024-03-02T04:21:29;5.50;;;2.90;;
61840;SDS011;47773;53.174;6.614;2024-03-02T04:23:55;6.22;;;2.90;;
61840;SDS011;47773;53.174;6.614;2024-03-02T04:26:23;6.90;;;3.20;;
61840;SDS011;47773;53.174;6.614;2024-03-02T04:28:50;5.85;;;2.80;;
61840;SDS011;47773;53.174;6.614;2024-03-02T04:31:19;6.28;;;2.65;;
61840;SDS011;47773;53.174;6.614;2024-03-02T04:33:45;6.78;;;2.72;;
61840;SDS011;47773;53.174;6.614;2024-03-02T04:36:10;7.00;;;2.80;;
61840;SDS011;47773;53.174;6.614;2024-03-02T04:38:37;6.32;;;2.50;;
61840;SDS011;47773;53.174;6.614;2024-03-02T04:41:03;5.45;;;2.75;;
61840;SDS011;47773;53.174;6.614;2024-03-02T04:43:31;4.95;;;2.55;;
61840;SDS011;47773;53.174;6.614;2024-03-02T04:45:57;5.72;;;2.70;;
61840;SDS011;47773;53.174;6.614;2024-03-02T04:48:23;5.38;;;2.85;;
61840;SDS011;47773;53.174;6.614;2024-03-02T04:50:49;5.03;;;2.72;;
61840;SDS011;47773;53.174;6.614;2024-03-02T04:53:15;9.52;;;3.10;;
61840;SDS011;47773;53.174;6.614;2024-03-02T04:55:40;5.78;;;2.55;;
61840;SDS011;47773;53.174;6.614;2024-03-02T04:58:06;5.60;;;2.67;;
61840;SDS011;47773;53.174;6.614;2024-03-02T05:00:32;5.68;;;2.80;;
61840;SDS011;47773;53.174;6.614;2024-03-02T05:02:58;7.50;;;2.75;;
61840;SDS011;47773;53.174;6.614;2024-03-02T05:05:23;6.20;;;2.88;;
61840;SDS011;47773;53.174;6.614;2024-03-02T05:07:49;4.93;;;2.70;;
61840;SDS011;47773;53.174;6.614;2024-03-02T05:10:15;6.13;;;3.03;;
61840;SDS011;47773;53.174;6.614;2024-03-02T05:12:41;4.72;;;2.90;;
61840;SDS011;47773;53.174;6.614;2024-03-02T05:15:10;6.35;;;3.13;;
61840;SDS011;47773;53.174;6.614;2024-03-02T05:17:37;7.32;;;2.70;;
61840;SDS011;47773;53.174;6.614;2024-03-02T05:20:04;4.68;;;2.70;;
61840;SDS011;47773;53.174;6.614;2024-03-02T05:22:31;4.15;;;2.53;;
61840;SDS011;47773;53.174;6.614;2024-03-02T05:24:56;5.88;;;2.72;;
61840;SDS011;47773;53.174;6.614;2024-03-02T05:27:24;5.03;;;2.55;;
61840;SDS011;47773;53.174;6.614;2024-03-02T05:29:49;6.13;;;2.78;;
61840;SDS011;47773;53.174;6.614;2024-03-02T05:32:15;5.15;;;2.63;;
61840;SDS011;47773;53.174;6.614;2024-03-02T05:34:40;4.30;;;2.63;;
61840;SDS011;47773;53.174;6.614;2024-03-02T05:37:06;7.55;;;2.58;;
61840;SDS011;47773;53.174;6.614;2024-03-02T05:39:32;4.60;;;2.90;;
61840;SDS011;47773;53.174;6.614;2024-03-02T05:41:57;4.97;;;2.60;;
61840;SDS011;47773;53.174;6.614;2024-03-02T05:44:23;5.22;;;2.83;;
61840;SDS011;47773;53.174;6.614;2024-03-02T05:46:49;6.85;;;2.65;;
61840;SDS011;47773;53.174;6.614;2024-03-02T05:49:14;5.80;;;2.50;;
61840;SDS011;47773;53.174;6.614;2024-03-02T05:51:40;5.57;;;2.45;;
61840;SDS011;47773;53.174;6.614;2024-03-02T05:54:06;4.43;;;2.60;;
61840;SDS011;47773;53.174;6.614;2024-03-02T05:56:32;5.70;;;2.72;;
61840;SDS011;47773;53.174;6.614;2024-03-02T05:58:57;6.28;;;3.08;;
61840;SDS011;47773;53.174;6.614;2024-03-02T06:01:39;4.20;;;2.35;;
61840;SDS011;47773;53.174;6.614;2024-03-02T06:04:05;6.90;;;2.65;;
61840;SDS011;47773;53.174;6.614;2024-03-02T06:06:31;6.00;;;2.75;;
61840;SDS011;47773;53.174;6.614;2024-03-02T06:09:03;5.63;;;2.80;;
61840;SDS011;47773;53.174;6.614;2024-03-02T06:11:36;4.88;;;2.67;;
61840;SDS011;47773;53.174;6.614;2024-03-02T06:14:02;4.68;;;2.42;;
61840;SDS011;47773;53.174;6.614;2024-03-02T06:16:28;5.35;;;2.70;;
61840;SDS011;47773;53.174;6.614;2024-03-02T06:18:54;7.55;;;2.58;;
61840;SDS011;47773;53.174;6.614;2024-03-02T06:21:22;7.55;;;2.90;;
61840;SDS011;47773;53.174;6.614;2024-03-02T06:23:48;6.05;;;2.90;;
61840;SDS011;47773;53.174;6.614;2024-03-02T06:26:14;4.63;;;2.58;;
61840;SDS011;47773;53.174;6.614;2024-03-02T06:28:40;11.18;;;2.60;;
61840;SDS011;47773;53.174;6.614;2024-03-02T06:31:06;6.88;;;3.35;;
61840;SDS011;47773;53.174;6.614;2024-03-02T06:33:31;5.03;;;3.13;;
61840;SDS011;47773;53.174;6.614;2024-03-02T06:35:57;6.05;;;3.08;;
61840;SDS011;47773;53.174;6.614;2024-03-02T06:38:22;4.75;;;2.50;;
61840;SDS011;47773;53.174;6.614;2024-03-02T06:40:48;5.85;;;2.72;;
61840;SDS011;47773;53.174;6.614;2024-03-02T06:43:14;8.95;;;2.70;;
61840;SDS011;47773;53.174;6.614;2024-03-02T06:45:40;5.00;;;2.63;;
61840;SDS011;47773;53.174;6.614;2024-03-02T06:48:06;4.75;;;2.75;;
61840;SDS011;47773;53.174;6.614;2024-03-02T06:50:31;7.82;;;3.03;;
61840;SDS011;47773;53.174;6.614;2024-03-02T06:52:57;4.35;;;2.60;;
61840;SDS011;47773;53.174;6.614;2024-03-02T06:55:24;5.32;;;2.55;;
61840;SDS011;47773;53.174;6.614;2024-03-02T06:57:50;4.65;;;2.50;;
61840;SDS011;47773;53.174;6.614;2024-03-02T07:00:17;6.05;;;2.63;;
61840;SDS011;47773;53.174;6.614;2024-03-02T07:02:43;7.53;;;2.60;;
61840;SDS011;47773;53.174;6.614;2024-03-02T07:05:09;6.47;;;2.75;;
61840;SDS011;47773;53.174;6.614;2024-03-02T07:07:36;4.78;;;2.80;;
61840;SDS011;47773;53.174;6.614;2024-03-02T07:10:05;5.03;;;2.53;;
61840;SDS011;47773;53.174;6.614;2024-03-02T07:12:32;5.15;;;2.78;;
61840;SDS011;47773;53.174;6.614;2024-03-02T07:14:58;4.88;;;2.70;;
61840;SDS011;47773;53.174;6.614;2024-03-02T07:17:32;5.75;;;2.60;;
61840;SDS011;47773;53.174;6.614;2024-03-02T07:19:58;4.60;;;2.85;;
61840;SDS011;47773;53.174;6.614;2024-03-02T07:22:24;4.88;;;2.80;;
61840;SDS011;47773;53.174;6.614;2024-03-02T07:24:50;5.30;;;2.88;;
61840;SDS011;47773;53.174;6.614;2024-03-02T07:27:16;5.07;;;2.45;;
61840;SDS011;47773;53.174;6.614;2024-03-02T07:29:42;6.53;;;3.42;;
61840;SDS011;47773;53.174;6.614;2024-03-02T07:32:08;5.60;;;2.95;;
61840;SDS011;47773;53.174;6.614;2024-03-02T07:34:35;5.10;;;2.70;;
61840;SDS011;47773;53.174;6.614;2024-03-02T07:37:01;5.82;;;3.05;;
61840;SDS011;47773;53.174;6.614;2024-03-02T07:39:27;4.90;;;2.80;;
61840;SDS011;47773;53.174;6.614;2024-03-02T07:41:54;7.28;;;2.85;;
61840;SDS011;47773;53.174;6.614;2024-03-02T07:44:20;6.55;;;2.85;;
61840;SDS011;47773;53.174;6.614;2024-03-02T07:46:46;6.13;;;2.88;;
61840;SDS011;47773;53.174;6.614;2024-03-02T07:49:14;7.03;;;3.22;;
61840;SDS011;47773;53.174;6.614;2024-03-02T07:51:40;5.50;;;2.70;;
61840;SDS011;47773;53.174;6.614;2024-03-02T07:54:06;4.40;;;2.42;;
61840;SDS011;47773;53.174;6.614;2024-03-02T07:56:32;5.72;;;2.80;;
61840;SDS011;47773;53.174;6.614;2024-03-02T07:58:58;3.78;;;2.38;;
61840;SDS011;47773;53.174;6.614;2024-03-02T08:01:32;3.95;;;2.30;;
61840;SDS011;47773;53.174;6.614;2024-03-02T08:03:58;5.28;;;2.47;;
61840;SDS011;47773;53.174;6.614;2024-03-02T08:06:28;4.25;;;2.50;;
61840;SDS011;47773;53.174;6.614;2024-03-02T08:08:54;3.75;;;2.38;;
61840;SDS011;47773;53.174;6.614;2024-03-02T08:11:21;4.28;;;2.10;;
61840;SDS011;47773;53.174;6.614;2024-03-02T08:13:47;5.47;;;2.00;;
61840;SDS011;47773;53.174;6.614;2024-03-02T08:16:13;3.45;;;1.85;;
61840;SDS011;47773;53.174;6.614;2024-03-02T08:18:45;4.68;;;2.10;;
61840;SDS011;47773;53.174;6.614;2024-03-02T08:21:12;5.88;;;1.60;;
61840;SDS011;47773;53.174;6.614;2024-03-02T08:23:38;3.53;;;1.77;;
61840;SDS011;47773;53.174;6.614;2024-03-02T08:26:05;3.42;;;1.35;;
61840;SDS011;47773;53.174;6.614;2024-03-02T08:28:31;4.35;;;1.63;;
61840;SDS011;47773;53.174;6.614;2024-03-02T08:30:58;2.03;;;1.38;;
61840;SDS011;47773;53.174;6.614;2024-03-02T08:33:23;3.13;;;1.50;;
61840;SDS011;47773;53.174;6.614;2024-03-02T08:35:49;5.65;;;1.80;;
61840;SDS011;47773;53.174;6.614;2024-03-02T08:38:15;2.92;;;1.58;;
61840;SDS011;47773;53.174;6.614;2024-03-02T08:40:41;3.40;;;1.60;;
61840;SDS011;47773;53.174;6.614;2024-03-02T08:43:06;3.97;;;1.50;;
61840;SDS011;47773;53.174;6.614;2024-03-02T08:45:32;2.35;;;1.30;;
61840;SDS011;47773;53.174;6.614;2024-03-02T08:47:59;2.83;;;1.13;;
61840;SDS011;47773;53.174;6.614;2024-03-02T08:50:25;4.30;;;1.40;;
61840;SDS011;47773;53.174;6.614;2024-03-02T08:52:51;1.70;;;1.10;;
61840;SDS011;47773;53.174;6.614;2024-03-02T08:55:17;4.47;;;1.30;;
61840;SDS011;47773;53.174;6.614;2024-03-02T08:57:42;5.53;;;1.60;;
61840;SDS011;47773;53.174;6.614;2024-03-02T09:00:08;2.22;;;1.40;;
61840;SDS011;47773;53.174;6.614;2024-03-02T09:02:34;2.92;;;1.30;;
61840;SDS011;47773;53.174;6.614;2024-03-02T09:05:00;2.08;;;1.00;;
61840;SDS011;47773;53.174;6.614;2024-03-02T09:07:26;2.38;;;1.20;;
61840;SDS011;47773;53.174;6.614;2024-03-02T09:09:52;3.58;;;1.15;;
61840;SDS011;47773;53.174;6.614;2024-03-02T09:12:17;3.85;;;1.50;;
61840;SDS011;47773;53.174;6.614;2024-03-02T09:14:44;3.63;;;1.40;;
61840;SDS011;47773;53.174;6.614;2024-03-02T09:17:10;2.03;;;1.20;;
61840;SDS011;47773;53.174;6.614;2024-03-02T09:19:37;2.92;;;1.10;;
61840;SDS011;47773;53.174;6.614;2024-03-02T09:22:03;3.10;;;1.10;;
61840;SDS011;47773;53.174;6.614;2024-03-02T09:24:30;1.63;;;1.02;;
61840;SDS011;47773;53.174;6.614;2024-03-02T09:26:59;3.22;;;1.60;;
61840;SDS011;47773;53.174;6.614;2024-03-02T09:29:25;2.60;;;1.20;;
61840;SDS011;47773;53.174;6.614;2024-03-02T09:31:50;2.42;;;1.10;;
61840;SDS011;47773;53.174;6.614;2024-03-02T09:34:16;3.88;;;1.20;;
61840;SDS011;47773;53.174;6.614;2024-03-02T09:36:42;2.25;;;0.82;;
61840;SDS011;47773;53.174;6.614;2024-03-02T09:39:08;2.53;;;0.80;;
61840;SDS011;47773;53.174;6.614;2024-03-02T09:41:35;2.38;;;1.02;;
61840;SDS011;47773;53.174;6.614;2024-03-02T09:44:02;4.05;;;0.95;;
61840;SDS011;47773;53.174;6.614;2024-03-02T09:46:28;3.33;;;1.10;;
61840;SDS011;47773;53.174;6.614;2024-03-02T09:48:54;1.60;;;0.90;;
61840;SDS011;47773;53.174;6.614;2024-03-02T09:51:20;2.08;;;1.00;;
61840;SDS011;47773;53.174;6.614;2024-03-02T09:53:45;2.40;;;0.90;;
61840;SDS011;47773;53.174;6.614;2024-03-02T09:56:12;4.38;;;1.10;;
61840;SDS011;47773;53.174;6.614;2024-03-02T09:58:38;2.53;;;0.98;;
61840;SDS011;47773;53.174;6.614;2024-03-02T10:01:07;2.83;;;0.80;;
61840;SDS011;47773;53.174;6.614;2024-03-02T10:03:35;3.42;;;0.98;;
61840;SDS011;47773;53.174;6.614;2024-03-02T10:08:50;2.60;;;0.90;;
61840;SDS011;47773;53.174;6.614;2024-03-02T10:11:26;3.00;;;0.90;;
61840;SDS011;47773;53.174;6.614;2024-03-02T10:14:05;3.50;;;1.00;;
61840;SDS011;47773;53.174;6.614;2024-03-02T10:16:39;3.38;;;0.75;;
61840;SDS011;47773;53.174;6.614;2024-03-02T10:21:48;4.55;;;0.90;;
61840;SDS011;47773;53.174;6.614;2024-03-02T10:24:18;3.60;;;0.95;;
61840;SDS011;47773;53.174;6.614;2024-03-02T10:26:44;2.60;;;0.85;;
61840;SDS011;47773;53.174;6.614;2024-03-02T10:29:10;1.27;;;0.80;;
61840;SDS011;47773;53.174;6.614;2024-03-02T10:31:37;3.50;;;0.90;;
61840;SDS011;47773;53.174;6.614;2024-03-02T10:34:04;5.80;;;1.08;;
61840;SDS011;47773;53.174;6.614;2024-03-02T10:36:31;3.95;;;1.00;;
61840;SDS011;47773;53.174;6.614;2024-03-02T10:39:00;1.77;;;0.70;;
61840;SDS011;47773;53.174;6.614;2024-03-02T10:41:28;5.03;;;0.80;;
61840;SDS011;47773;53.174;6.614;2024-03-02T10:43:57;2.47;;;1.00;;
61840;SDS011;47773;53.174;6.614;2024-03-02T10:46:28;2.45;;;0.80;;
61840;SDS011;47773;53.174;6.614;2024-03-02T10:48:58;4.05;;;1.08;;
61840;SDS011;47773;53.174;6.614;2024-03-02T10:51:25;1.67;;;1.00;;
61840;SDS011;47773;53.174;6.614;2024-03-02T10:53:52;3.70;;;1.13;;
61840;SDS011;47773;53.174;6.614;2024-03-02T10:56:29;2.33;;;0.93;;
61840;SDS011;47773;53.174;6.614;2024-03-02T11:01:52;4.63;;;1.27;;
61840;SDS011;47773;53.174;6.614;2024-03-02T11:04:21;3.63;;;1.25;;
61840;SDS011;47773;53.174;6.614;2024-03-02T11:06:50;2.92;;;0.90;;
61840;SDS011;47773;53.174;6.614;2024-03-02T11:09:18;2.63;;;1.00;;
61840;SDS011;47773;53.174;6.614;2024-03-02T11:11:48;5.00;;;1.17;;
61840;SDS011;47773;53.174;6.614;2024-03-02T11:14:21;1.63;;;0.80;;
61840;SDS011;47773;53.174;6.614;2024-03-02T11:16:50;5.55;;;1.30;;
61840;SDS011;47773;53.174;6.614;2024-03-02T11:19:17;4.20;;;1.05;;
61840;SDS011;47773;53.174;6.614;2024-03-02T11:21:43;4.88;;;1.17;;
61840;SDS011;47773;53.174;6.614;2024-03-02T11:26:52;2.08;;;1.10;;
61840;SDS011;47773;53.174;6.614;2024-03-02T11:32:15;3.70;;;1.10;;
61840;SDS011;47773;53.174;6.614;2024-03-02T11:34:43;2.30;;;1.00;;
61840;SDS011;47773;53.174;6.614;2024-03-02T11:37:11;3.22;;;1.10;;
61840;SDS011;47773;53.174;6.614;2024-03-02T11:39:39;4.78;;;1.00;;
61840;SDS011;47773;53.174;6.614;2024-03-02T11:42:05;8.63;;;1.30;;
61840;SDS011;47773;53.174;6.614;2024-03-02T11:44:34;2.30;;;1.10;;
61840;SDS011;47773;53.174;6.614;2024-03-02T11:47:01;3.30;;;1.20;;
61840;SDS011;47773;53.174;6.614;2024-03-02T11:49:46;4.22;;;1.50;;
61840;SDS011;47773;53.174;6.614;2024-03-02T11:52:15;3.65;;;1.20;;
61840;SDS011;47773;53.174;6.614;2024-03-02T11:54:43;3.95;;;1.30;;
61840;SDS011;47773;53.174;6.614;2024-03-02T11:57:17;2.55;;;1.00;;
61840;SDS011;47773;53.174;6.614;2024-03-02T11:59:52;3.17;;;1.10;;
61840;SDS011;47773;53.174;6.614;2024-03-02T12:02:18;3.97;;;1.17;;
61840;SDS011;47773;53.174;6.614;2024-03-02T12:04:46;4.22;;;1.20;;
61840;SDS011;47773;53.174;6.614;2024-03-02T12:07:18;3.20;;;1.00;;
61840;SDS011;47773;53.174;6.614;2024-03-02T12:09:46;1.83;;;0.95;;
61840;SDS011;47773;53.174;6.614;2024-03-02T12:12:11;1.83;;;0.70;;
61840;SDS011;47773;53.174;6.614;2024-03-02T12:14:49;2.22;;;1.02;;
61840;SDS011;47773;53.174;6.614;2024-03-02T12:17:16;2.67;;;0.93;;
61840;SDS011;47773;53.174;6.614;2024-03-02T12:19:42;6.65;;;1.30;;
61840;SDS011;47773;53.174;6.614;2024-03-02T12:22:07;4.07;;;1.40;;
61840;SDS011;47773;53.174;6.614;2024-03-02T12:24:33;4.63;;;1.33;;
61840;SDS011;47773;53.174;6.614;2024-03-02T12:26:59;5.10;;;1.35;;
61840;SDS011;47773;53.174;6.614;2024-03-02T12:29:25;4.78;;;1.70;;
61840;SDS011;47773;53.174;6.614;2024-03-02T12:31:52;3.03;;;1.50;;
61840;SDS011;47773;53.174;6.614;2024-03-02T12:34:18;3.08;;;1.67;;
61840;SDS011;47773;53.174;6.614;2024-03-02T12:36:45;3.08;;;1.60;;
61840;SDS011;47773;53.174;6.614;2024-03-02T12:39:14;3.10;;;1.73;;
61840;SDS011;47773;53.174;6.614;2024-03-02T12:41:43;3.38;;;1.60;;
61840;SDS011;47773;53.174;6.614;2024-03-02T12:44:08;3.20;;;1.70;;
61840;SDS011;47773;53.174;6.614;2024-03-02T12:46:34;6.20;;;2.05;;
61840;SDS011;47773;53.174;6.614;2024-03-02T12:49:13;4.22;;;1.85;;
61840;SDS011;47773;53.174;6.614;2024-03-02T12:51:43;4.47;;;2.00;;
61840;SDS011;47773;53.174;6.614;2024-03-02T12:54:11;10.80;;;2.08;;
61840;SDS011;47773;53.174;6.614;2024-03-02T12:56:37;4.50;;;1.88;;
61840;SDS011;47773;53.174;6.614;2024-03-02T12:59:03;6.22;;;2.10;;
61840;SDS011;47773;53.174;6.614;2024-03-02T13:01:30;4.95;;;2.20;;
61840;SDS011;47773;53.174;6.614;2024-03-02T13:03:57;4.38;;;2.00;;
61840;SDS011;47773;53.174;6.614;2024-03-02T13:06:23;4.80;;;2.10;;
61840;SDS011;47773;53.174;6.614;2024-03-02T13:08:52;5.55;;;2.38;;
61840;SDS011;47773;53.174;6.614;2024-03-02T13:11:18;4.45;;;2.38;;
61840;SDS011;47773;53.174;6.614;2024-03-02T13:13:44;3.65;;;2.47;;
61840;SDS011;47773;53.174;6.614;2024-03-02T13:16:10;5.63;;;2.38;;
61840;SDS011;47773;53.174;6.614;2024-03-02T13:18:40;8.68;;;2.72;;
61840;SDS011;47773;53.174;6.614;2024-03-02T13:21:07;7.72;;;3.22;;
61840;SDS011;47773;53.174;6.614;2024-03-02T13:23:33;8.30;;;4.30;;
61840;SDS011;47773;53.174;6.614;2024-03-02T13:25:59;8.13;;;3.60;;
61840;SDS011;47773;53.174;6.614;2024-03-02T13:28:25;9.02;;;4.05;;
61840;SDS011;47773;53.174;6.614;2024-03-02T13:30:51;7.65;;;3.65;;
61840;SDS011;47773;53.174;6.614;2024-03-02T13:33:17;6.00;;;3.95;;
61840;SDS011;47773;53.174;6.614;2024-03-02T13:35:50;10.75;;;4.40;;
61840;SDS011;47773;53.174;6.614;2024-03-02T13:38:20;4.35;;;3.63;;
61840;SDS011;47773;53.174;6.614;2024-03-02T13:40:49;5.55;;;4.05;;
61840;SDS011;47773;53.174;6.614;2024-03-02T13:43:17;9.23;;;4.10;;
61840;SDS011;47773;53.174;6.614;2024-03-02T13:45:44;7.32;;;4.00;;
61840;SDS011;47773;53.174;6.614;2024-03-02T13:48:10;6.63;;;4.03;;
61840;SDS011;47773;53.174;6.614;2024-03-02T13:50:35;5.55;;;3.50;;
61840;SDS011;47773;53.174;6.614;2024-03-02T13:53:01;6.10;;;3.47;;
61840;SDS011;47773;53.174;6.614;2024-03-02T13:55:28;7.13;;;3.70;;
61840;SDS011;47773;53.174;6.614;2024-03-02T13:57:54;5.15;;;3.45;;
61840;SDS011;47773;53.174;6.614;2024-03-02T14:00:19;8.60;;;3.88;;
61840;SDS011;47773;53.174;6.614;2024-03-02T14:02:45;7.38;;;3.67;;
61840;SDS011;47773;53.174;6.614;2024-03-02T14:05:11;7.43;;;3.38;;
61840;SDS011;47773;53.174;6.614;2024-03-02T14:07:38;9.25;;;3.40;;
61840;SDS011;47773;53.174;6.614;2024-03-02T14:10:04;5.55;;;3.20;;
61840;SDS011;47773;53.174;6.614;2024-03-02T14:12:30;4.95;;;2.75;;
61840;SDS011;47773;53.174;6.614;2024-03-02T14:14:56;6.38;;;3.00;;
61840;SDS011;47773;53.174;6.614;2024-03-02T14:17:27;6.88;;;2.75;;
61840;SDS011;47773;53.174;6.614;2024-03-02T14:19:53;6.72;;;2.67;;
61840;SDS011;47773;53.174;6.614;2024-03-02T14:22:19;9.23;;;2.30;;
61840;SDS011;47773;53.174;6.614;2024-03-02T14:24:45;3.67;;;2.20;;
61840;SDS011;47773;53.174;6.614;2024-03-02T14:27:11;3.38;;;1.75;;
61840;SDS011;47773;53.174;6.614;2024-03-02T14:29:39;4.82;;;1.80;;
61840;SDS011;47773;53.174;6.614;2024-03-02T14:32:05;9.30;;;2.33;;
61840;SDS011;47773;53.174;6.614;2024-03-02T14:34:31;8.30;;;1.70;;
61840;SDS011;47773;53.174;6.614;2024-03-02T14:36:58;7.05;;;1.90;;
61840;SDS011;47773;53.174;6.614;2024-03-02T14:39:24;4.63;;;1.73;;
61840;SDS011;47773;53.174;6.614;2024-03-02T14:41:50;7.43;;;1.98;;
61840;SDS011;47773;53.174;6.614;2024-03-02T14:44:16;3.50;;;1.55;;
61840;SDS011;47773;53.174;6.614;2024-03-02T14:46:42;4.00;;;1.88;;
61840;SDS011;47773;53.174;6.614;2024-03-02T14:49:09;4.15;;;1.55;;
61840;SDS011;47773;53.174;6.614;2024-03-02T14:51:40;5.38;;;1.67;;
61840;SDS011;47773;53.174;6.614;2024-03-02T14:54:06;3.92;;;1.75;;
61840;SDS011;47773;53.174;6.614;2024-03-02T14:56:31;4.85;;;1.80;;
61840;SDS011;47773;53.174;6.614;2024-03-02T14:58:57;6.55;;;2.13;;
61840;SDS011;47773;53.174;6.614;2024-03-02T15:01:22;5.00;;;1.83;;